Time;durP1;ratioP1;P1;durP2;ratioP2;P2;SDS_P1;SDS_P2;PMS_P1;PMS_P2;Temp;Humidity;BMP_temperature;BMP_pressure;BME280_temperature;BME280_humidity;BME280_pressure;Samples;Min_cycle;Max_cycle;Signal;HPM_P1;HPM_P2
2022/08/25 00:00:20;;;;;;;10.43;6.73;;;26.60;44.70;;;29.18;34.84;101872.09;5056039;28;20193;-63
2022/08/25 00:02:49;;;;;;;7.30;5.80;;;26.60;44.90;;;29.14;35.03;101879.13;5055563;28;20602;-62
2022/08/25 00:05:26;;;;;;;6.73;4.77;;;26.50;45.00;;;29.12;35.21;101877.78;5056338;28;20201;-62
2022/08/25 00:07:56;;;;;;;7.07;4.73;;;26.50;45.20;;;29.09;35.38;101878.28;5056056;28;20252;-61
2022/08/25 00:10:23;;;;;;;5.10;4.60;;;26.50;45.50;;;29.04;35.43;101875.56;5056641;28;20200;-61
2022/08/25 00:12:52;;;;;;;4.87;3.93;;;26.40;45.50;;;29.02;35.33;101873.16;5075723;28;20213;-62
2022/08/25 00:15:21;;;;;;;4.30;3.90;;;26.40;45.50;;;29.01;35.43;101887.78;5075750;28;20216;-63
2022/08/25 00:17:49;;;;;;;6.57;4.10;;;26.40;45.70;;;28.97;35.55;101873.13;5075555;28;20185;-63
2022/08/25 00:20:17;;;;;;;5.60;3.90;;;26.30;45.80;;;28.96;35.68;101878.81;5075763;28;20656;-62
2022/08/25 00:22:44;;;;;;;3.93;3.47;;;26.30;46.00;;;28.91;35.66;101876.91;5075770;28;20205;-61
2022/08/25 00:25:12;;;;;;;4.40;3.13;;;26.30;46.10;;;28.84;35.98;101876.34;5076005;28;20193;-61
2022/08/25 00:27:40;;;;;;;4.63;3.67;;;26.20;46.20;;;28.79;36.00;101879.03;5075485;28;20213;-62
2022/08/25 00:30:13;;;;;;;4.73;3.30;;;26.20;46.50;;;28.71;36.34;101866.84;5075536;28;20791;-62
2022/08/25 00:32:43;;;;;;;3.33;3.03;;;26.10;46.60;;;28.68;36.22;101870.09;5075565;28;20209;-62
2022/08/25 00:35:22;;;;;;;5.73;3.63;;;26.10;46.60;;;28.63;36.58;101878.19;5075506;28;20223;-62
2022/08/25 00:37:49;;;;;;;4.70;3.60;;;26.00;46.80;;;28.60;36.71;101875.19;5075307;28;20196;-63
2022/08/25 00:40:17;;;;;;;5.13;3.20;;;26.00;46.90;;;28.54;36.81;101881.66;5075178;28;20190;-62
2022/08/25 00:42:45;;;;;;;4.10;3.50;;;25.90;47.00;;;28.47;36.68;101887.34;5075167;28;20205;-60
2022/08/25 00:45:14;;;;;;;3.47;3.17;;;25.90;47.20;;;28.40;36.55;101884.06;5070318;28;20196;-62
2022/08/25 00:47:41;;;;;;;4.27;3.87;;;25.80;47.40;;;28.34;36.66;101887.81;5055233;28;20218;-59
2022/08/25 00:50:11;;;;;;;3.53;3.23;;;25.70;47.50;;;28.28;37.28;101885.34;5055019;28;20612;-62
2022/08/25 00:52:44;;;;;;;7.00;3.30;;;25.60;47.70;;;28.21;36.98;101890.19;5054756;28;20210;-62
2022/08/25 00:55:18;;;;;;;5.27;3.43;;;25.60;47.80;;;28.14;36.94;101883.13;5055040;28;20565;-63
2022/08/25 00:57:54;;;;;;;3.60;3.30;;;25.50;48.00;;;28.08;37.25;101889.59;5055411;28;20316;-62
2022/08/25 01:00:29;;;;;;;3.50;3.20;;;25.50;48.20;;;28.02;37.73;101885.22;5055208;28;20192;-63
2022/08/25 01:02:57;;;;;;;4.70;3.37;;;25.40;48.30;;;28.00;37.62;101881.94;5054663;28;20555;-60
2022/08/25 01:05:28;;;;;;;4.60;3.73;;;25.40;48.50;;;27.96;37.64;101883.53;5054746;28;20263;-61
2022/08/25 01:07:58;;;;;;;3.67;3.37;;;25.30;48.60;;;27.93;37.48;101891.38;5055277;28;20209;-63
2022/08/25 01:10:28;;;;;;;4.10;3.57;;;25.30;48.80;;;27.88;37.94;101889.44;5069942;28;20659;-62
2022/08/25 01:13:01;;;;;;;5.93;3.17;;;25.30;48.80;;;27.83;37.91;101885.88;5054627;28;20210;-61
2022/08/25 01:15:32;;;;;;;3.60;3.30;;;25.20;48.90;;;27.80;38.09;101892.63;5054819;28;20189;-62
2022/08/25 01:18:00;;;;;;;5.20;3.63;;;25.20;49.00;;;27.77;38.25;101895.03;5054314;28;20538;-63
2022/08/25 01:20:31;;;;;;;3.93;3.57;;;25.10;49.10;;;27.71;38.02;101893.38;5054112;28;20189;-62
2022/08/25 01:23:01;;;;;;;3.60;3.30;;;25.00;49.20;;;27.65;38.45;101891.72;5054261;28;20218;-61
2022/08/25 01:25:45;;;;;;;4.03;3.73;;;25.00;49.50;;;27.59;38.48;101896.28;5054573;28;21003;-62
2022/08/25 01:28:13;;;;;;;4.80;3.80;;;25.00;49.70;;;27.58;38.62;101894.63;5054290;28;20198;-61
2022/08/25 01:30:41;;;;;;;5.27;3.93;;;24.90;49.80;;;27.53;38.50;101898.13;5053823;28;20213;-61
2022/08/25 01:33:10;;;;;;;4.77;3.67;;;24.90;49.90;;;27.51;38.66;101900.25;5054201;28;20206;-62
2022/08/25 01:35:39;;;;;;;4.30;3.90;;;24.90;50.20;;;27.49;38.88;101896.19;5054162;28;20201;-62
2022/08/25 01:38:08;;;;;;;4.90;3.73;;;24.80;50.20;;;27.46;38.88;101885.88;5053961;28;20186;-62
2022/08/25 01:40:38;;;;;;;4.43;4.03;;;24.80;50.30;;;27.43;39.07;101887.19;5053979;28;20208;-61
2022/08/25 01:43:17;;;;;;;4.03;3.63;;;24.80;50.40;;;27.40;39.42;101889.63;5053882;28;20222;-61
2022/08/25 01:45:47;;;;;;;4.67;4.07;;;24.80;51.20;;;27.39;39.26;101890.69;5053802;28;20197;-61
2022/08/25 01:48:15;;;;;;;4.20;3.80;;;24.70;50.60;;;27.38;38.85;101883.66;5053877;28;20694;-62
2022/08/25 01:50:43;;;;;;;4.30;3.90;;;24.70;50.60;;;27.37;38.81;101887.41;5053343;28;20193;-62
2022/08/25 01:53:21;;;;;;;3.90;3.60;;;24.70;50.60;;;27.31;39.41;101888.44;5053323;28;20216;-62
2022/08/25 01:55:51;;;;;;;4.30;3.90;;;24.70;50.80;;;27.30;39.32;101881.38;5053510;28;20190;-62
2022/08/25 01:58:24;;;;;;;5.43;4.23;;;24.70;50.90;;;27.26;39.11;101891.91;5053899;28;20251;-61
2022/08/25 02:00:55;;;;;;;6.47;3.80;;;24.60;51.00;;;27.24;39.89;101890.53;5053265;28;20198;-62
2022/08/25 02:03:24;;;;;;;5.80;3.70;;;24.60;51.10;;;27.21;39.68;101896.44;5059079;28;20693;-62
2022/08/25 02:05:53;;;;;;;5.37;4.43;;;24.60;51.20;;;27.17;39.89;101892.63;5073523;28;20663;-62
2022/08/25 02:08:23;;;;;;;4.73;4.23;;;24.50;51.30;;;27.15;39.62;101900.16;5073331;28;20283;-62
2022/08/25 02:10:54;;;;;;;3.60;3.30;;;24.60;51.60;;;27.14;39.47;101895.84;5073014;28;20264;-62
2022/08/25 02:13:22;;;;;;;12.00;4.50;;;24.50;51.60;;;27.15;39.56;101897.47;5073423;28;20697;-63
2022/08/25 02:16:01;;;;;;;5.63;4.33;;;24.50;51.70;;;27.14;40.25;101890.44;5073309;28;20193;-62
2022/08/25 02:18:28;;;;;;;4.67;4.17;;;24.50;51.70;;;27.12;39.90;101895.28;5088977;28;20185;-61
2022/08/25 02:20:56;;;;;;;4.57;4.17;;;24.50;51.90;;;27.09;40.26;101885.81;5072898;28;20197;-62
2022/08/25 02:23:25;;;;;;;4.90;4.50;;;24.40;51.80;;;27.07;40.43;101889.81;5073105;28;20213;-62
2022/08/25 02:25:53;;;;;;;4.57;4.17;;;24.40;52.00;;;27.03;40.16;101892.22;5072334;28;20193;-62
2022/08/25 02:28:20;;;;;;;5.13;4.23;;;24.40;52.20;;;27.02;40.44;101895.19;5072960;28;20574;-62
2022/08/25 02:30:47;;;;;;;5.60;4.23;;;24.40;52.30;;;27.00;40.15;101886.50;5072912;28;20189;-62
2022/08/25 02:33:15;;;;;;;4.73;4.27;;;24.40;52.50;;;26.99;40.15;101885.69;5072923;28;20209;-63
2022/08/25 02:35:42;;;;;;;5.47;4.97;;;24.30;52.50;;;26.98;40.74;101894.06;5073374;28;20272;-61
2022/08/25 02:38:10;;;;;;;4.80;4.40;;;24.30;52.70;;;26.94;40.48;101882.94;5059087;28;20186;-63
2022/08/25 02:40:39;;;;;;;5.00;4.50;;;24.30;52.90;;;26.91;40.59;101890.75;5052607;28;20634;-62
2022/08/25 02:43:06;;;;;;;5.30;4.80;;;24.20;53.00;;;26.86;41.25;101886.91;5052604;28;20213;-62
2022/08/25 02:45:34;;;;;;;5.57;4.70;;;24.20;53.00;;;26.83;41.32;101884.72;5060044;28;20229;-64
2022/08/25 02:48:02;;;;;;;5.60;4.90;;;24.20;53.50;;;26.79;41.46;101886.28;5072647;28;20658;-61
2022/08/25 02:50:29;;;;;;;5.63;5.10;;;24.20;53.50;;;26.76;41.22;101883.28;5072567;28;20189;-61
2022/08/25 02:52:57;;;;;;;5.47;4.97;;;24.10;53.70;;;26.72;41.29;101885.63;5072590;28;20220;-62
2022/08/25 02:55:25;;;;;;;4.93;4.53;;;24.10;53.90;;;26.71;42.08;101883.19;5072708;28;20189;-62
2022/08/25 02:57:54;;;;;;;5.17;4.67;;;24.10;54.10;;;26.68;41.44;101879.13;5072433;28;20208;-62
2022/08/25 03:00:22;;;;;;;5.60;5.10;;;24.00;54.30;;;26.68;41.64;101879.13;5061059;28;20218;-62
2022/08/25 03:02:49;;;;;;;5.77;5.17;;;24.00;54.40;;;26.66;41.67;101883.97;5052407;28;20581;-63
2022/08/25 03:05:17;;;;;;;6.27;5.53;;;24.00;54.60;;;26.65;42.35;101871.50;5052475;28;20288;-62
2022/08/25 03:07:44;;;;;;;6.23;5.60;;;24.00;54.70;;;26.66;42.39;101875.84;5052396;28;20255;-61
2022/08/25 03:10:16;;;;;;;7.07;4.27;;;24.00;54.80;;;26.67;42.35;101882.88;5052264;28;20213;-62
2022/08/25 03:12:44;;;;;;;6.33;5.13;;;24.00;54.80;;;26.68;41.93;101881.81;5052199;28;20236;-63
2022/08/25 03:15:16;;;;;;;5.80;5.20;;;24.00;54.90;;;26.67;41.91;101874.78;5052761;28;20201;-63
2022/08/25 03:17:48;;;;;;;6.33;5.03;;;24.00;55.00;;;26.67;42.28;101880.16;5052390;28;20201;-61
2022/08/25 03:20:18;;;;;;;4.83;4.33;;;24.00;55.10;;;26.64;42.33;101880.69;5052599;28;20198;-61
2022/08/25 03:22:46;;;;;;;5.70;5.07;;;24.00;55.30;;;26.60;43.02;101878.75;5052449;28;20205;-61
2022/08/25 03:28:00;;;;;;;7.23;5.43;;;23.90;55.60;;;26.52;42.66;101874.63;5052145;28;20178;-62
2022/08/25 03:30:30;;;;;;;5.80;5.17;;;23.90;55.70;;;26.50;42.84;101875.94;5052017;28;20200;-61
2022/08/25 03:32:57;;;;;;;5.97;5.37;;;23.90;56.00;;;26.47;43.51;101866.44;5052145;28;20209;-60
2022/08/25 03:35:25;;;;;;;7.07;5.57;;;23.90;56.20;;;26.46;43.50;101869.41;5052352;28;20186;-62
2022/08/25 03:37:55;;;;;;;11.23;5.63;;;23.80;56.20;;;26.45;43.53;101868.59;5053531;28;20192;-61
2022/08/25 03:40:24;;;;;;;7.13;5.63;;;23.80;56.40;;;26.45;43.40;101867.78;5055593;28;20182;-61
2022/08/25 03:42:53;;;;;;;6.23;5.63;;;23.80;56.60;;;26.41;44.10;101864.72;5055553;28;20214;-61
2022/08/25 03:45:22;;;;;;;6.13;5.50;;;23.80;56.70;;;26.37;43.62;101866.31;5061266;28;20204;-63
2022/08/25 03:47:52;;;;;;;6.43;5.87;;;23.70;56.80;;;26.33;44.25;101859.78;5091187;28;20189;-63
2022/08/25 03:50:23;;;;;;;7.10;5.80;;;23.70;57.10;;;26.31;44.33;101866.50;5075702;28;20312;-61
2022/08/25 03:52:54;;;;;;;6.27;5.70;;;23.70;57.30;;;26.27;43.84;101866.19;5062983;28;20216;-62
2022/08/25 03:55:24;;;;;;;7.40;6.13;;;23.60;57.40;;;26.23;44.34;101865.06;5054233;28;20182;-62
2022/08/25 03:57:54;;;;;;;6.83;5.80;;;23.60;57.70;;;26.20;44.75;101852.88;5035404;28;20260;-62
2022/08/25 04:00:22;;;;;;;7.40;5.80;;;23.60;57.90;;;26.19;44.92;101855.84;5035215;28;20190;-64
2022/08/25 04:02:51;;;;;;;6.40;5.80;;;23.50;58.00;;;26.16;45.23;101854.47;5035838;28;20210;-62
2022/08/25 04:05:19;;;;;;;7.43;5.53;;;23.60;58.30;;;26.16;45.28;101856.34;5035535;28;20229;-62
2022/08/25 04:07:46;;;;;;;6.60;5.97;;;23.50;58.40;;;26.13;44.99;101854.13;5050793;28;20214;-62
2022/08/25 04:10:14;;;;;;;7.03;5.77;;;23.50;58.60;;;26.11;45.57;101861.66;5034935;28;20333;-62
2022/08/25 04:12:43;;;;;;;6.70;6.03;;;23.50;58.70;;;26.10;44.95;101857.31;5035050;28;20214;-61
2022/08/25 04:15:11;;;;;;;8.20;6.00;;;23.40;58.70;;;26.07;45.48;101861.31;5035025;28;20644;-61
2022/08/25 04:17:39;;;;;;;6.43;5.83;;;23.40;59.20;;;26.05;45.88;101859.94;5034932;28;20567;-61
2022/08/25 04:20:11;;;;;;;7.03;6.23;;;23.40;59.20;;;26.03;45.34;101853.97;5034544;28;20191;-62
2022/08/25 04:22:40;;;;;;;6.67;5.73;;;23.40;59.50;;;26.01;45.89;101856.09;5034807;28;20218;-62
2022/08/25 04:25:12;;;;;;;6.20;5.70;;;23.30;59.50;;;26.01;45.67;101856.91;5034563;28;20501;-63
2022/08/25 04:27:40;;;;;;;8.80;6.67;;;23.30;59.80;;;26.00;45.85;101851.78;5034874;28;20191;-62
2022/08/25 04:30:09;;;;;;;7.57;6.87;;;23.30;60.00;;;25.99;45.89;101856.34;5034636;28;20234;-63
2022/08/25 04:32:37;;;;;;;8.70;7.20;;;23.30;60.00;;;25.97;46.89;101852.25;5034603;28;20668;-63
2022/08/25 04:35:06;;;;;;;9.90;6.70;;;23.30;60.40;;;25.94;46.62;101845.47;5034389;28;20190;-62
2022/08/25 04:37:35;;;;;;;6.87;6.23;;;23.30;60.50;;;25.95;46.99;101846.31;5034511;28;20281;-64
2022/08/25 04:40:05;;;;;;;6.50;6.00;;;23.30;60.70;;;25.94;46.29;101844.66;5034362;28;20187;-61
2022/08/25 04:42:33;;;;;;;7.73;6.57;;;23.30;60.70;;;25.94;46.51;101844.66;5034643;28;20207;-62
2022/08/25 04:45:00;;;;;;;6.80;6.20;;;23.30;61.00;;;25.92;47.13;101839.50;5034472;28;20697;-62
2022/08/25 04:47:28;;;;;;;9.47;6.70;;;23.30;61.10;;;25.91;47.53;101839.78;5035535;28;20201;-63
2022/08/25 04:49:55;;;;;;;7.80;7.07;;;23.30;61.60;;;25.90;47.00;101844.34;5034625;28;20218;-62
2022/08/25 04:52:22;;;;;;;8.47;7.43;;;23.30;61.50;;;25.90;47.09;101843.53;5041769;28;20236;-61
2022/08/25 04:54:53;;;;;;;9.70;6.97;;;23.20;61.70;;;25.89;47.79;101831.91;5054651;28;20194;-63
2022/08/25 04:57:20;;;;;;;9.37;6.83;;;23.20;62.10;;;25.90;47.78;101843.53;5054483;28;20488;-63
2022/08/25 04:59:48;;;;;;;11.23;7.10;;;23.20;62.30;;;25.92;48.01;101846.78;5054342;28;20186;-62
2022/08/25 05:02:15;;;;;;;7.73;6.53;;;23.20;62.40;;;25.91;47.75;101845.97;5054545;28;20229;-62
2022/08/25 05:04:42;;;;;;;7.77;6.97;;;23.30;62.60;;;25.92;47.48;101847.59;5054167;28;20194;-61
2022/08/25 05:07:10;;;;;;;7.80;7.00;;;23.20;62.70;;;25.94;47.78;101858.97;5053900;28;20190;-63
2022/08/25 05:09:37;;;;;;;8.43;7.10;;;23.30;62.70;;;25.95;47.90;101851.69;5054028;28;20257;-62
2022/08/25 05:12:08;;;;;;;8.13;7.30;;;23.30;63.20;;;25.94;47.84;101855.44;5053981;28;20570;-61
2022/08/25 05:14:37;;;;;;;7.93;7.13;;;23.30;63.30;;;25.94;47.96;101855.44;5053944;28;20347;-60
2022/08/25 05:17:05;;;;;;;8.57;7.70;;;23.30;63.60;;;25.92;48.37;101862.97;5053749;28;20194;-62
2022/08/25 05:19:34;;;;;;;7.40;6.70;;;23.30;64.10;;;25.90;48.32;101854.31;5053825;28;20654;-63
2022/08/25 05:22:02;;;;;;;12.33;8.50;;;23.30;64.10;;;25.91;49.04;101855.97;5069225;28;20218;-62
2022/08/25 05:24:30;;;;;;;9.33;8.23;;;23.30;64.40;;;25.88;49.27;101851.88;5053795;28;20264;-63
2022/08/25 05:26:57;;;;;;;8.80;8.00;;;23.30;64.60;;;25.87;48.75;101852.09;5069240;28;20212;-64
2022/08/25 05:29:26;;;;;;;12.70;8.93;;;23.20;64.70;;;25.89;49.21;101842.69;5053815;28;20240;-64
2022/08/25 05:31:53;;;;;;;19.70;9.17;;;23.30;64.90;;;25.90;49.48;101848.94;5053658;28;20559;-63
2022/08/25 05:34:21;;;;;;;11.30;8.83;;;23.30;65.10;;;25.90;49.94;101844.34;5052269;28;20198;-64
2022/08/25 05:36:49;;;;;;;10.60;8.73;;;23.30;65.40;;;25.89;50.04;101839.19;5053864;28;20194;-64
2022/08/25 05:39:17;;;;;;;9.50;8.40;;;23.30;65.60;;;25.90;49.97;101838.13;5053188;28;20523;-63
2022/08/25 05:41:44;;;;;;;12.17;8.77;;;23.30;65.70;;;25.92;50.30;101838.69;5053408;28;20214;-63
2022/08/25 05:44:12;;;;;;;8.83;7.93;;;23.30;66.00;;;25.92;50.27;101841.38;5052956;28;20193;-63
2022/08/25 05:46:46;;;;;;;9.97;8.97;;;23.30;66.10;;;25.94;50.47;101839.25;5053420;28;20199;-63
2022/08/25 05:49:13;;;;;;;10.17;8.00;;;23.30;66.40;;;25.94;49.91;101833.84;5040872;28;20206;-63
2022/08/25 05:51:41;;;;;;;10.30;8.63;;;23.30;66.50;;;25.95;50.33;101828.22;5033593;28;20226;-61
2022/08/25 05:54:08;;;;;;;9.80;8.83;;;23.30;66.30;;;25.98;49.73;101821.53;5033147;28;20222;-64
2022/08/25 05:56:35;;;;;;;11.10;10.00;;;23.40;66.50;;;26.05;50.58;101824.84;5033252;28;20290;-62
2022/08/25 05:59:03;;;;;;;13.63;12.10;;;23.40;66.70;;;26.10;50.39;101830.31;5033660;28;20174;-63
2022/08/25 06:04:23;;;;;;;9.87;8.93;;;23.50;67.00;;;26.24;50.47;101826.22;5033420;28;20294;-63
2022/08/25 06:06:52;;;;;;;12.53;10.03;;;23.50;67.10;;;26.31;50.61;101829.53;5032898;28;20195;-63
2022/08/25 06:09:20;;;;;;;9.10;8.20;;;23.60;67.30;;;26.39;50.53;101836.34;5031492;28;20206;-64
2022/08/25 06:11:48;;;;;;;12.13;9.57;;;23.60;67.10;;;26.46;50.23;101832.38;5047748;28;20253;-63
2022/08/25 06:14:22;;;;;;;11.43;10.33;;;23.80;67.90;;;26.51;50.42;101828.94;5033804;28;20726;-63
2022/08/25 06:16:50;;;;;;;10.20;9.20;;;23.80;67.70;;;26.56;50.64;101827.09;5033055;28;20250;-64
2022/08/25 06:19:19;;;;;;;11.33;10.03;;;23.90;67.40;;;26.60;50.66;101839.03;5033339;28;20690;-62
2022/08/25 06:21:48;;;;;;;11.23;10.20;;;23.90;68.30;;;26.61;51.05;101829.88;5035735;28;20548;-62
2022/08/25 06:24:15;;;;;;;9.90;9.00;;;24.00;68.30;;;26.67;50.59;101839.66;5053926;28;20659;-63
2022/08/25 06:26:43;;;;;;;11.83;9.27;;;24.00;68.10;;;26.72;50.54;101836.22;5053530;28;20209;-62
2022/08/25 06:29:12;;;;;;;10.17;9.07;;;24.00;68.00;;;26.77;50.22;101834.38;5052749;28;20190;-62
2022/08/25 06:31:41;;;;;;;10.23;9.20;;;24.10;67.90;;;26.83;50.99;101833.38;5067743;28;20667;-62
2022/08/25 06:34:10;;;;;;;10.07;9.13;;;24.20;68.20;;;26.90;50.86;101845.84;5068068;28;20201;-63
2022/08/25 06:36:37;;;;;;;9.97;8.93;;;24.20;68.00;;;26.97;49.98;101835.66;5053031;28;20190;-62
2022/08/25 06:39:06;;;;;;;12.47;10.03;;;24.30;67.80;;;27.07;49.94;101828.47;5053276;28;20636;-63
2022/08/25 06:41:37;;;;;;;10.47;9.43;;;24.30;68.20;;;27.16;50.35;101831.50;5068437;28;20228;-63
2022/08/25 06:44:05;;;;;;;11.40;10.23;;;24.40;68.30;;;27.21;49.88;101828.84;5052548;28;20651;-63
2022/08/25 06:46:33;;;;;;;11.03;9.40;;;24.50;68.10;;;27.20;50.03;101827.19;5053475;28;20221;-63
2022/08/25 06:49:04;;;;;;;10.57;9.57;;;24.50;67.80;;;27.27;50.17;101831.31;5052860;28;20170;-63
2022/08/25 06:51:32;;;;;;;9.73;8.67;;;24.60;67.80;;;27.34;49.91;101828.38;5052836;28;20200;-62
2022/08/25 06:54:00;;;;;;;10.47;8.97;;;24.60;67.50;;;27.45;50.13;101822.84;5053644;28;20189;-64
2022/08/25 06:56:29;;;;;;;10.30;9.30;;;24.70;67.60;;;27.57;49.39;101827.25;5053271;28;20204;-64
2022/08/25 06:58:56;;;;;;;10.97;9.87;;;24.80;67.40;;;27.67;49.47;101828.13;5052860;28;20711;-65
2022/08/25 07:01:25;;;;;;;20.87;15.70;;;24.90;67.30;;;27.80;49.39;101832.25;5051344;28;20201;-62
2022/08/25 07:03:58;;;;;;;9.90;8.90;;;25.00;66.90;;;27.91;48.83;101832.06;5053108;28;20277;-64
2022/08/25 07:06:30;;;;;;;9.70;8.70;;;25.10;66.60;;;28.06;48.72;101829.47;5053043;28;20272;-63
2022/08/25 07:08:58;;;;;;;9.77;8.87;;;25.20;66.30;;;28.17;48.42;101823.00;5052642;28;20206;-63
2022/08/25 07:11:28;;;;;;;10.23;9.20;;;25.30;66.10;;;28.25;48.13;101828.97;5052714;28;20213;-63
2022/08/25 07:13:55;;;;;;;11.43;10.23;;;25.40;65.80;;;28.32;48.16;101824.94;5056054;28;20190;-63
2022/08/25 07:16:23;;;;;;;12.57;11.27;;;25.50;65.80;;;28.38;47.85;101823.09;5056878;28;20700;-62
2022/08/25 07:18:56;;;;;;;10.07;9.03;;;25.50;65.40;;;28.47;47.65;101821.47;5056849;28;20259;-63
2022/08/25 07:21:29;;;;;;;10.90;9.73;;;25.60;65.00;;;28.58;47.48;101817.69;5056052;28;20194;-63
2022/08/25 07:24:06;;;;;;;12.43;9.47;;;25.70;64.80;;;28.64;47.40;101814.78;5056859;28;20516;-62
2022/08/25 07:26:37;;;;;;;10.27;9.20;;;25.80;64.80;;;28.75;47.53;101818.31;5072176;28;20178;-63
2022/08/25 07:29:09;;;;;;;11.93;9.30;;;25.90;64.70;;;29.01;47.07;101817.25;5072733;28;20186;-62
2022/08/25 07:31:37;;;;;;;9.90;8.90;;;26.00;64.80;;;29.59;46.51;101823.22;5057863;28;20241;-62
2022/08/25 07:37:11;;;;;;;13.07;11.17;;;26.50;64.00;;;31.02;43.96;101829.41;5055187;28;20591;-63
2022/08/25 07:39:50;;;;;;;14.43;13.03;;;27.10;62.80;;;31.88;42.01;101829.41;5066678;28;20189;-63
2022/08/25 07:42:26;;;;;;;9.90;8.90;;;27.70;61.30;;;32.81;39.79;101831.47;5056995;28;20767;-62
2022/08/25 07:45:04;;;;;;;7.50;6.87;;;28.30;59.30;;;33.70;38.59;101823.97;5072407;28;20206;-65
2022/08/25 07:47:35;;;;;;;8.83;7.87;;;28.90;58.50;;;34.55;36.93;101827.69;5073459;28;20204;-66
2022/08/25 07:50:17;;;;;;;10.60;8.33;;;29.60;56.50;;;35.38;35.13;101828.94;5089059;28;20237;-64
2022/08/25 07:52:50;;;;;;;9.23;8.43;;;30.30;54.40;;;36.18;33.89;101830.59;5063453;28;20256;-66
2022/08/25 07:55:29;;;;;;;9.23;7.53;;;31.00;53.10;;;37.07;32.87;101828.84;5076683;28;20549;-64
2022/08/25 07:58:03;;;;;;;10.00;8.43;;;31.60;51.00;;;37.78;31.03;101829.94;5076125;28;20243;-65
2022/08/25 08:00:33;;;;;;;8.67;7.83;;;32.30;49.40;;;38.37;30.14;101825.25;5092360;28;20197;-66
2022/08/25 08:03:04;;;;;;;8.75;7.78;;;32.80;47.30;;;38.85;29.29;101821.13;5091840;28;20221;-63
2022/08/25 08:05:35;;;;;;;8.30;7.50;;;33.40;45.60;;;39.40;28.77;101816.03;5075769;28;20189;-63
2022/08/25 08:08:04;;;;;;;8.98;8.05;;;33.90;45.00;;;40.08;27.48;101821.81;5061256;28;20214;-65
2022/08/25 08:10:32;;;;;;;10.13;7.88;;;34.40;43.20;;;40.59;27.03;101820.19;5051233;28;20309;-64
2022/08/25 08:13:22;;;;;;;8.80;7.07;;;34.80;41.90;;;41.11;26.34;101816.16;5040270;28;20218;-63
2022/08/25 08:15:49;;;;;;;10.50;7.75;;;35.30;41.30;;;41.64;25.55;101812.00;5052256;28;20203;-63
2022/08/25 08:18:17;;;;;;;8.90;6.93;;;35.70;39.50;;;42.02;24.66;101808.56;5050861;28;20675;-63
2022/08/25 08:20:47;;;;;;;8.68;7.13;;;36.20;38.70;;;42.44;24.87;101801.19;5045990;27;20248;-63
2022/08/25 08:23:16;;;;;;;8.35;7.20;;;36.50;38.10;;;42.73;23.50;101801.78;5055348;28;20233;-64
2022/08/25 08:25:43;;;;;;;8.00;6.45;;;36.90;36.50;;;42.97;23.42;101795.94;5057045;28;20190;-64
2022/08/25 08:28:11;;;;;;;8.30;7.15;;;37.20;36.50;;;43.47;22.78;101803.16;5070281;28;20197;-63
2022/08/25 08:30:41;;;;;;;9.15;7.68;;;37.50;36.10;;;43.84;22.68;101811.69;5050086;28;20224;-64
2022/08/25 08:33:22;;;;;;;8.18;7.32;;;37.80;34.90;;;44.00;21.70;101809.53;5056328;28;20205;-62
2022/08/25 08:35:57;;;;;;;7.60;6.57;;;37.90;33.50;;;44.12;22.24;101809.34;5032466;28;20259;-63
2022/08/25 08:38:25;;;;;;;9.82;9.02;;;38.30;34.10;;;44.42;22.40;101805.34;5054162;28;20634;-62
2022/08/25 08:44:07;;;;;;;13.00;11.70;;;38.80;32.80;;;45.03;21.04;101810.44;5049612;28;20296;-63
2022/08/25 08:46:52;;;;;;;7.82;6.65;;;39.10;32.40;;;45.55;20.76;101802.94;5045920;28;20736;-64
2022/08/25 08:49:34;;;;;;;7.93;7.13;;;39.20;31.60;;;45.82;19.81;101793.19;5060166;28;20198;-64
2022/08/25 08:52:04;;;;;;;8.38;6.65;;;39.50;31.20;;;45.90;19.50;101792.06;5050743;28;20287;-63
2022/08/25 08:54:38;;;;;;;10.40;6.70;;;39.70;30.90;;;46.01;19.78;101790.13;5050588;28;20187;-62
2022/08/25 08:57:15;;;;;;;7.60;6.32;;;39.90;30.00;;;46.13;19.69;101792.59;5063147;28;20197;-64
2022/08/25 08:59:50;;;;;;;11.23;6.35;;;40.10;30.10;;;46.41;18.86;101791.13;5045078;28;20685;-63
2022/08/25 09:02:32;;;;;;;7.20;6.60;;;40.20;29.90;;;46.17;18.34;101787.81;5050363;28;20236;-65
2022/08/25 09:05:23;;;;;;;8.18;6.88;;;40.20;29.10;;;45.87;19.24;101784.47;5057397;28;20212;-64
2022/08/25 09:08:06;;;;;;;7.35;6.75;;;40.20;29.40;;;46.07;19.08;101796.16;5054163;28;20677;-63
2022/08/25 09:10:56;;;;;;;6.72;6.07;;;40.30;29.40;;;46.34;19.65;101791.88;5055743;28;20725;-64
2022/08/25 09:13:42;;;;;;;9.93;8.07;;;40.50;29.60;;;46.76;18.86;101788.47;5055125;28;20217;-62
2022/08/25 09:19:41;;;;;;;6.97;6.25;;;40.80;28.70;;;45.98;18.84;101779.78;5077672;28;20205;-63
2022/08/25 09:22:29;;;;;;;9.55;8.65;;;40.60;28.60;;;45.94;19.33;101778.94;5060599;28;20635;-62
2022/08/25 09:25:15;;;;;;;7.10;6.47;;;40.70;29.10;;;46.44;19.41;101768.03;5052617;28;20284;-65
2022/08/25 09:28:07;;;;;;;7.78;7.07;;;40.70;29.00;;;46.59;18.35;101764.09;5062095;28;20500;-62
2022/08/25 09:30:46;;;;;;;7.43;6.82;;;40.80;28.60;;;46.77;18.76;101764.94;5054885;28;20289;-62
2022/08/25 09:33:20;;;;;;;6.72;6.13;;;40.90;28.60;;;47.01;18.45;101758.56;5053765;28;20229;-64
2022/08/25 09:35:51;;;;;;;9.30;6.78;;;41.10;28.10;;;46.94;18.15;101764.16;5052510;28;20194;-62
2022/08/25 09:38:25;;;;;;;7.20;6.43;;;41.20;28.00;;;46.83;18.26;101763.34;5056935;28;20209;-64
2022/08/25 09:40:59;;;;;;;7.63;6.15;;;41.20;28.20;;;47.08;18.17;101758.59;5056837;28;20224;-64
2022/08/25 09:43:32;;;;;;;8.38;6.38;;;41.30;27.90;;;47.11;17.83;101752.22;5065298;28;20684;-62
2022/08/25 09:46:10;;;;;;;6.07;5.47;;;41.30;27.30;;;46.51;18.04;101751.31;5045693;28;20701;-62
2022/08/25 09:48:47;;;;;;;7.45;6.18;;;41.20;27.40;;;46.57;18.20;101749.75;5058371;28;20227;-63
2022/08/25 09:51:31;;;;;;;6.93;6.00;;;41.10;27.70;;;46.82;18.02;101745.81;5050796;28;20304;-62
2022/08/25 09:54:20;;;;;;;6.82;6.15;;;41.00;27.70;;;47.23;17.83;101746.25;5050976;28;20576;-61
2022/08/25 09:56:55;;;;;;;6.63;5.97;;;41.10;27.90;;;47.53;17.95;101735.44;5051009;28;20197;-62
2022/08/25 09:59:27;;;;;;;10.75;9.95;;;41.30;27.80;;;47.83;17.17;101726.59;5047878;28;20301;-63
2022/08/25 10:02:22;;;;;;;7.90;6.38;;;41.50;27.50;;;48.00;16.82;101730.50;5057833;28;20292;-62
2022/08/25 10:04:51;;;;;;;6.18;5.65;;;41.70;27.00;;;48.04;16.76;101720.09;5068143;28;20691;-63
2022/08/25 10:07:26;;;;;;;5.55;4.80;;;41.90;26.90;;;47.67;16.14;101717.06;5067777;28;20601;-63
2022/08/25 10:09:58;;;;;;;6.78;6.18;;;41.70;25.30;;;47.00;16.70;101717.13;5031584;28;20182;-64
2022/08/25 10:12:38;;;;;;;6.25;5.55;;;41.60;25.90;;;46.82;17.43;101712.34;5048963;28;20528;-63
2022/08/25 10:15:18;;;;;;;6.55;5.82;;;41.50;26.30;;;46.73;17.47;101708.34;5047139;28;20259;-62
2022/08/25 10:18:20;;;;;;;12.27;6.82;;;41.40;26.50;;;46.91;16.62;101703.56;5039934;28;20187;-62
2022/08/25 10:21:07;;;;;;;5.18;4.78;;;41.40;25.90;;;47.37;16.97;101690.38;5050594;28;20213;-62
2022/08/25 10:23:43;;;;;;;6.20;5.60;;;41.60;26.00;;;47.56;16.03;101683.56;5047267;28;20654;-61
2022/08/25 10:26:25;;;;;;;7.13;6.10;;;41.70;25.70;;;47.33;16.44;101697.16;5048715;28;20190;-64
2022/08/25 10:29:14;;;;;;;6.53;5.85;;;41.70;25.40;;;47.53;16.25;101687.97;5041209;28;20193;-62
2022/08/25 10:31:54;;;;;;;5.85;5.32;;;41.80;25.60;;;47.81;16.00;101683.50;5047816;28;20244;-63
2022/08/25 10:34:41;;;;;;;6.30;5.78;;;41.90;25.50;;;48.05;16.13;101676.97;5051357;28;20193;-63
2022/08/25 10:37:27;;;;;;;6.60;5.07;;;42.10;25.60;;;47.11;16.29;101674.09;5051762;28;20201;-65
2022/08/25 10:40:14;;;;;;;7.75;7.15;;;42.00;25.00;;;45.69;17.42;101666.63;5052296;28;20284;-64
2022/08/25 10:43:05;;;;;;;7.57;5.80;;;41.80;25.20;;;43.95;19.09;101673.78;5051924;28;20264;-64